createdAt,value
2022-12-18T00:00:14.918Z,27.27
2022-12-18T00:02:44.597Z,27.05
2022-12-18T00:05:13.346Z,31.08
2022-12-18T00:07:41.483Z,28.85
2022-12-18T00:10:10.875Z,27.70
2022-12-18T00:12:43.473Z,29.13
2022-12-18T00:15:11.871Z,35.05
2022-12-18T00:17:40.680Z,39.00
2022-12-18T00:20:12.778Z,38.55
2022-12-18T00:22:41.416Z,41.95
2022-12-18T00:25:10.949Z,35.80
2022-12-18T00:27:39.584Z,33.75
2022-12-18T00:30:10.366Z,29.80
2022-12-18T00:32:39.624Z,32.58
2022-12-18T00:35:11.225Z,31.25
2022-12-18T00:37:39.754Z,32.27
2022-12-18T00:40:10.188Z,31.75
2022-12-18T00:42:56.451Z,33.38
2022-12-18T00:45:27.993Z,31.83
2022-12-18T00:47:57.146Z,31.90
2022-12-18T00:50:27.777Z,30.05
2022-12-18T00:52:56.208Z,31.50
2022-12-18T00:55:24.517Z,30.83
2022-12-18T00:57:54.093Z,30.83
2022-12-18T01:00:23.084Z,29.23
2022-12-18T01:02:51.988Z,29.92
2022-12-18T01:05:20.475Z,29.15
2022-12-18T01:07:50.290Z,28.13
2022-12-18T01:10:19.016Z,28.15
2022-12-18T01:12:47.680Z,27.38
2022-12-18T01:15:17.256Z,27.90
2022-12-18T01:17:46.012Z,25.75
2022-12-18T01:20:15.348Z,26.25
2022-12-18T01:22:43.611Z,26.40
2022-12-18T01:25:13.499Z,23.52
2022-12-18T01:27:41.848Z,25.77
2022-12-18T01:30:11.491Z,24.25
2022-12-18T01:32:40.249Z,21.50
2022-12-18T01:35:09.900Z,23.77
2022-12-18T01:37:38.169Z,22.73
2022-12-18T01:40:08.488Z,22.08
2022-12-18T01:42:38.446Z,21.85
2022-12-18T01:45:24.841Z,21.42
2022-12-18T01:47:57.260Z,20.63
2022-12-18T01:53:02.180Z,17.92
2022-12-18T01:55:37.425Z,18.17
2022-12-18T01:58:07.572Z,20.75
2022-12-18T02:00:36.660Z,20.30
2022-12-18T02:03:05.173Z,20.35
2022-12-18T02:05:46.556Z,21.02
2022-12-18T02:08:23.217Z,19.30
2022-12-18T02:11:03.595Z,18.77
2022-12-18T02:13:46.163Z,19.33
2022-12-18T02:16:23.783Z,19.65
2022-12-18T02:19:00.395Z,18.30
2022-12-18T02:21:41.534Z,19.90
2022-12-18T02:24:30.830Z,19.33
2022-12-18T02:27:06.169Z,17.92
2022-12-18T02:29:40.970Z,19.65
2022-12-18T02:32:16.513Z,17.85
2022-12-18T02:34:46.792Z,19.77
2022-12-18T02:37:20.704Z,19.65
2022-12-18T02:39:55.403Z,17.90
2022-12-18T02:42:26.132Z,20.25
2022-12-18T02:44:57.992Z,18.23
2022-12-18T02:50:13.294Z,18.77
2022-12-18T02:52:55.839Z,18.63
2022-12-18T02:55:36.108Z,17.27
2022-12-18T02:58:18.229Z,14.68
2022-12-18T03:00:59.274Z,15.80
2022-12-18T03:03:38.224Z,15.02
2022-12-18T03:06:12.141Z,15.95
2022-12-18T03:08:45.773Z,15.52
2022-12-18T03:11:16.296Z,16.00
2022-12-18T03:13:52.836Z,16.58
2022-12-18T03:16:28.206Z,14.88
2022-12-18T03:19:00.734Z,15.52
2022-12-18T03:21:35.690Z,16.92
2022-12-18T03:24:08.498Z,16.73
2022-12-18T03:26:42.812Z,16.25
2022-12-18T03:29:23.420Z,15.55
2022-12-18T03:31:57.163Z,15.38
2022-12-18T03:34:32.089Z,16.42
2022-12-18T03:37:04.788Z,16.05
2022-12-18T03:39:34.904Z,19.17
2022-12-18T03:42:10.622Z,18.02
2022-12-18T03:44:55.973Z,18.85
2022-12-18T03:47:30.446Z,19.13
2022-12-18T03:50:13.222Z,17.83
2022-12-18T03:52:52.132Z,17.80
2022-12-18T03:55:25.185Z,17.75
2022-12-18T03:58:01.254Z,18.27
2022-12-18T04:00:40.742Z,18.52
2022-12-18T04:03:13.241Z,17.48
2022-12-18T04:05:47.696Z,17.63
2022-12-18T04:08:17.205Z,17.38
2022-12-18T04:10:53.501Z,17.48
2022-12-18T04:13:25.871Z,19.10
2022-12-18T04:15:56.180Z,16.75
2022-12-18T04:18:25.830Z,18.08
2022-12-18T04:20:54.739Z,18.73
2022-12-18T04:23:24.850Z,17.88
2022-12-18T04:25:55.018Z,18.90
2022-12-18T04:28:37.365Z,17.17
2022-12-18T04:31:08.265Z,19.83
2022-12-18T04:33:37.903Z,18.57
2022-12-18T04:36:08.686Z,19.70
2022-12-18T04:38:37.631Z,19.35
2022-12-18T04:41:10.400Z,18.73
2022-12-18T04:43:39.517Z,17.80
2022-12-18T04:46:11.237Z,17.58
2022-12-18T04:48:40.207Z,18.60
2022-12-18T04:51:09.080Z,17.95
2022-12-18T04:53:37.728Z,19.10
2022-12-18T04:56:09.645Z,18.80
2022-12-18T04:58:38.191Z,18.17
2022-12-18T05:01:07.268Z,19.00
2022-12-18T05:03:38.741Z,19.17
2022-12-18T05:06:08.753Z,18.43
2022-12-18T05:08:37.210Z,18.63
2022-12-18T05:11:08.196Z,20.70
2022-12-18T05:13:39.120Z,17.63
2022-12-18T05:16:09.076Z,19.27
2022-12-18T05:18:40.100Z,17.38
2022-12-18T05:21:08.601Z,17.98
2022-12-18T05:23:37.419Z,17.27
2022-12-18T05:26:08.767Z,18.65
2022-12-18T05:28:38.526Z,18.15
2022-12-18T05:31:07.905Z,19.10
2022-12-18T05:33:39.173Z,17.50
2022-12-18T05:36:10.033Z,16.85
2022-12-18T05:38:40.727Z,17.45
2022-12-18T05:41:10.498Z,16.52
2022-12-18T05:43:41.640Z,18.75
2022-12-18T05:46:14.296Z,17.60
2022-12-18T05:48:44.426Z,17.40
2022-12-18T05:51:16.703Z,17.77
2022-12-18T05:53:45.850Z,18.35
2022-12-18T05:56:18.056Z,17.98
2022-12-18T05:58:47.184Z,19.38
2022-12-18T06:01:19.141Z,19.40
2022-12-18T06:03:49.634Z,19.27
2022-12-18T06:06:20.911Z,18.75
2022-12-18T06:08:49.606Z,19.40
2022-12-18T06:11:21.451Z,17.88
2022-12-18T06:13:57.960Z,18.63
2022-12-18T06:16:27.862Z,20.98
2022-12-18T06:18:58.789Z,20.25
2022-12-18T06:21:28.595Z,18.70
2022-12-18T06:23:57.085Z,21.17
2022-12-18T06:26:28.571Z,21.33
2022-12-18T06:28:57.626Z,20.58
2022-12-18T06:31:27.377Z,22.30
2022-12-18T06:33:57.101Z,20.35
2022-12-18T06:36:25.858Z,20.35
2022-12-18T06:38:54.119Z,22.55
2022-12-18T06:41:24.100Z,22.50
2022-12-18T06:43:56.789Z,21.33
2022-12-18T06:46:27.799Z,21.48
2022-12-18T06:48:57.685Z,20.52
2022-12-18T06:51:28.178Z,19.23
2022-12-18T06:53:56.673Z,22.08
2022-12-18T06:56:25.074Z,20.88
2022-12-18T06:58:53.719Z,19.10
2022-12-18T07:01:22.007Z,17.73
2022-12-18T07:03:55.393Z,17.27
2022-12-18T07:06:27.492Z,19.85
2022-12-18T07:08:57.024Z,18.30
2022-12-18T07:11:25.572Z,20.02
2022-12-18T07:13:55.556Z,20.17
2022-12-18T07:16:25.894Z,20.02
2022-12-18T07:18:56.356Z,20.45
2022-12-18T07:21:27.141Z,20.33
2022-12-18T07:23:55.781Z,19.88
2022-12-18T07:26:25.100Z,19.33
2022-12-18T07:28:58.595Z,21.52
2022-12-18T07:31:27.907Z,20.90
2022-12-18T07:33:57.215Z,21.45
2022-12-18T07:36:27.168Z,19.80
2022-12-18T07:38:55.873Z,19.48
2022-12-18T07:41:24.363Z,20.92
2022-12-18T07:43:52.851Z,20.77
2022-12-18T07:46:21.613Z,21.10
2022-12-18T07:48:50.615Z,21.35
2022-12-18T07:51:20.136Z,20.95
2022-12-18T07:53:52.029Z,21.13
2022-12-18T07:59:00.639Z,20.85
2022-12-18T08:01:29.552Z,20.95
2022-12-18T08:03:59.682Z,23.33
2022-12-18T08:06:28.199Z,22.05
2022-12-18T08:08:58.866Z,23.48
2022-12-18T08:11:29.836Z,22.70
2022-12-18T08:13:58.765Z,23.38
2022-12-18T08:16:27.807Z,23.33
2022-12-18T08:18:56.513Z,23.15
2022-12-18T08:21:28.155Z,22.40
2022-12-18T08:24:00.324Z,22.17
2022-12-18T08:26:30.869Z,24.88
2022-12-18T08:29:01.403Z,21.77
2022-12-18T08:31:31.657Z,22.38
2022-12-18T08:34:00.040Z,23.75
2022-12-18T08:36:28.458Z,22.63
2022-12-18T08:39:00.700Z,22.40
2022-12-18T08:41:28.926Z,21.42
2022-12-18T08:44:14.761Z,21.70
2022-12-18T08:46:45.682Z,21.35
2022-12-18T08:49:14.324Z,21.00
2022-12-18T08:51:42.964Z,19.77
2022-12-18T08:54:14.754Z,23.05
2022-12-18T08:56:42.956Z,17.67
2022-12-18T08:59:18.854Z,20.10
2022-12-18T09:01:49.448Z,23.70
2022-12-18T09:04:18.039Z,22.15
2022-12-18T09:06:46.355Z,23.10
2022-12-18T09:09:16.207Z,18.92
2022-12-18T09:11:44.526Z,17.98
2022-12-18T09:14:13.019Z,18.52
2022-12-18T09:16:41.535Z,19.75
2022-12-18T09:19:11.132Z,19.38
2022-12-18T09:21:43.354Z,20.08
2022-12-18T09:24:17.630Z,18.08
2022-12-18T09:26:47.589Z,17.73
2022-12-18T09:29:18.915Z,18.27
2022-12-18T09:31:47.611Z,17.40
2022-12-18T09:34:15.904Z,17.90
2022-12-18T09:36:44.328Z,18.67
2022-12-18T09:39:12.719Z,19.92
2022-12-18T09:41:58.103Z,20.23
2022-12-18T09:44:30.751Z,21.88
2022-12-18T09:47:14.598Z,20.65
2022-12-18T09:49:46.366Z,22.48
2022-12-18T09:52:23.784Z,20.83
2022-12-18T09:54:57.151Z,20.30
2022-12-18T09:57:27.932Z,20.08
2022-12-18T10:00:01.315Z,19.75
2022-12-18T10:02:40.190Z,19.45
2022-12-18T10:05:13.815Z,19.17
2022-12-18T10:07:55.635Z,19.42
2022-12-18T10:10:40.062Z,20.20
2022-12-18T10:13:23.686Z,21.02
2022-12-18T10:16:16.295Z,20.77
2022-12-18T10:19:11.931Z,21.53
2022-12-18T10:21:49.400Z,21.23
2022-12-18T10:24:28.570Z,21.95
2022-12-18T10:27:06.916Z,19.80
2022-12-18T10:29:36.892Z,20.27
2022-12-18T10:32:05.800Z,20.88
2022-12-18T10:34:34.863Z,21.88
2022-12-18T10:37:04.031Z,25.08
2022-12-18T10:39:32.495Z,29.48
2022-12-18T10:42:18.208Z,30.58
2022-12-18T10:44:48.400Z,26.55
2022-12-18T10:47:20.771Z,21.17
2022-12-18T10:49:53.075Z,21.15
2022-12-18T10:52:24.560Z,19.63
2022-12-18T10:54:59.144Z,20.35
2022-12-18T10:57:37.940Z,21.45
2022-12-18T11:00:26.506Z,20.40
2022-12-18T11:02:55.653Z,22.55
2022-12-18T11:05:33.917Z,21.85
2022-12-18T11:08:03.250Z,21.95
2022-12-18T11:10:35.541Z,22.15
2022-12-18T11:13:22.893Z,22.13
2022-12-18T11:15:53.255Z,21.75
2022-12-18T11:18:28.225Z,21.98
2022-12-18T11:20:59.742Z,22.38
2022-12-18T11:23:29.424Z,23.27
2022-12-18T11:26:01.749Z,23.70
2022-12-18T11:28:39.795Z,23.67
2022-12-18T11:31:25.022Z,23.80
2022-12-18T11:34:28.078Z,22.13
2022-12-18T11:36:51.084Z,20.08
2022-12-18T11:39:26.785Z,22.77
2022-12-18T11:42:13.368Z,22.13
2022-12-18T11:44:50.413Z,23.17
2022-12-18T11:47:32.341Z,22.58
2022-12-18T11:50:04.171Z,23.33
2022-12-18T11:52:39.775Z,23.73
2022-12-18T11:55:16.069Z,24.95
2022-12-18T11:57:56.656Z,21.95
2022-12-18T12:00:26.243Z,21.70
2022-12-18T12:03:49.603Z,21.05
2022-12-18T12:06:25.640Z,22.10
2022-12-18T12:09:11.162Z,20.73
2022-12-18T12:11:58.669Z,22.05
2022-12-18T12:14:44.966Z,22.40
2022-12-18T12:17:25.031Z,22.90
2022-12-18T12:20:04.605Z,22.55
2022-12-18T12:22:46.710Z,22.58
2022-12-18T12:25:34.764Z,22.23
2022-12-18T12:28:26.707Z,22.60
2022-12-18T12:31:09.047Z,21.52
2022-12-18T12:33:44.889Z,21.55
2022-12-18T12:36:23.108Z,22.52
2022-12-18T12:38:58.484Z,22.48
2022-12-18T12:41:47.139Z,22.73
2022-12-18T12:44:21.393Z,22.77
2022-12-18T12:46:52.120Z,23.17
2022-12-18T12:49:26.279Z,23.00
2022-12-18T12:52:06.072Z,23.48
2022-12-18T12:54:37.197Z,25.33
2022-12-18T12:57:14.766Z,24.27
2022-12-18T12:59:59.079Z,23.15
2022-12-18T13:02:35.827Z,23.83
2022-12-18T13:05:17.594Z,24.90
2022-12-18T13:07:56.331Z,29.33
2022-12-18T13:10:37.475Z,30.88
2022-12-18T13:13:08.978Z,24.67
2022-12-18T13:15:44.101Z,26.90
2022-12-18T13:18:19.900Z,24.88
2022-12-18T13:20:55.342Z,26.52
2022-12-18T13:23:37.504Z,23.23
2022-12-18T13:26:35.488Z,22.30
2022-12-18T13:29:07.290Z,22.33
2022-12-18T13:32:03.960Z,25.50
2022-12-18T13:34:33.696Z,24.75
2022-12-18T13:37:53.155Z,24.33
2022-12-18T13:40:59.640Z,24.60
2022-12-18T13:43:44.615Z,22.55
2022-12-18T13:46:26.502Z,23.90
2022-12-18T13:49:05.720Z,23.20
2022-12-18T13:51:37.398Z,21.85
2022-12-18T13:54:20.825Z,22.05
2022-12-18T13:56:51.462Z,23.02
2022-12-18T13:59:24.741Z,23.67
2022-12-18T14:01:57.366Z,22.02
2022-12-18T14:04:31.420Z,21.73
2022-12-18T14:07:06.056Z,22.38
2022-12-18T14:09:39.573Z,23.10
2022-12-18T14:12:36.838Z,21.20
2022-12-18T14:15:14.441Z,22.35
2022-12-18T14:17:44.338Z,24.67
2022-12-18T14:20:16.944Z,27.40
2022-12-18T14:22:47.417Z,23.35
2022-12-18T14:25:23.315Z,24.02
2022-12-18T14:28:03.915Z,23.35
2022-12-18T14:30:37.533Z,23.38
2022-12-18T14:33:08.001Z,24.30
2022-12-18T14:35:39.982Z,23.40
2022-12-18T14:38:24.827Z,24.08
2022-12-18T14:40:59.729Z,25.05
2022-12-18T14:43:33.444Z,23.17
2022-12-18T14:46:02.845Z,23.95
2022-12-18T14:48:40.725Z,23.83
2022-12-18T14:51:19.444Z,25.45
2022-12-18T14:53:54.287Z,24.20
2022-12-18T14:56:26.507Z,23.75
2022-12-18T14:58:58.751Z,23.08
2022-12-18T15:01:32.352Z,23.77
2022-12-18T15:04:03.977Z,24.92
2022-12-18T15:06:36.062Z,24.35
2022-12-18T15:09:07.789Z,24.20
2022-12-18T15:11:47.424Z,25.60
2022-12-18T15:14:37.323Z,25.85
2022-12-18T15:17:15.618Z,25.77
2022-12-18T15:19:46.611Z,26.38
2022-12-18T15:22:27.974Z,25.40
2022-12-18T15:24:57.698Z,24.75
2022-12-18T15:27:31.145Z,24.65
2022-12-18T15:30:24.398Z,25.00
2022-12-18T15:32:55.652Z,25.92
2022-12-18T15:35:26.294Z,25.58
2022-12-18T15:37:55.174Z,25.25
2022-12-18T15:40:26.210Z,26.95
2022-12-18T15:43:14.896Z,25.65
2022-12-18T15:45:44.476Z,25.08
2022-12-18T15:48:23.047Z,26.05
2022-12-18T15:50:52.619Z,25.42
2022-12-18T15:53:21.383Z,27.20
2022-12-18T15:56:07.512Z,25.48
2022-12-18T15:58:36.835Z,25.77
2022-12-18T16:01:07.250Z,25.60
2022-12-18T16:03:35.579Z,26.75
2022-12-18T16:06:04.334Z,26.23
2022-12-18T16:08:33.453Z,26.30
2022-12-18T16:11:03.013Z,26.92
2022-12-18T16:13:31.303Z,26.63
2022-12-18T16:16:00.035Z,28.17
2022-12-18T16:18:29.884Z,27.85
2022-12-18T16:20:58.245Z,28.95
2022-12-18T16:23:28.198Z,27.77
2022-12-18T16:25:56.857Z,29.40
2022-12-18T16:28:25.276Z,28.27
2022-12-18T16:30:53.870Z,30.88
2022-12-18T16:33:22.228Z,34.90
2022-12-18T16:35:55.610Z,34.05
2022-12-18T16:38:24.319Z,32.58
2022-12-18T16:41:10.273Z,31.65
2022-12-18T16:43:39.269Z,33.53
2022-12-18T16:46:07.875Z,34.10
2022-12-18T16:48:36.759Z,35.88
2022-12-18T16:51:07.598Z,30.90
2022-12-18T16:53:35.950Z,31.40
2022-12-18T16:56:05.351Z,29.48
2022-12-18T16:58:35.409Z,30.00
2022-12-18T17:01:09.361Z,37.78
2022-12-18T17:03:38.375Z,31.15
2022-12-18T17:06:09.713Z,30.05
2022-12-18T17:08:38.260Z,29.77
2022-12-18T17:11:08.269Z,30.17
2022-12-18T17:13:36.961Z,29.90
2022-12-18T17:16:06.566Z,30.70
2022-12-18T17:18:36.224Z,32.65
2022-12-18T17:21:09.713Z,26.90
2022-12-18T17:23:39.121Z,30.50
2022-12-18T17:26:10.482Z,30.70
2022-12-18T17:28:41.163Z,31.23
2022-12-18T17:31:14.137Z,29.95
2022-12-18T17:33:43.255Z,32.92
2022-12-18T17:36:13.497Z,31.88
2022-12-18T17:38:41.935Z,33.17
2022-12-18T17:41:12.699Z,30.75
2022-12-18T17:43:45.609Z,39.33
2022-12-18T17:46:16.039Z,35.92
2022-12-18T17:48:46.211Z,41.60
2022-12-18T17:51:17.793Z,83.65
2022-12-18T17:53:46.755Z,48.22
2022-12-18T17:56:17.774Z,37.40
2022-12-18T17:58:48.003Z,30.33
2022-12-18T18:01:19.334Z,30.90
2022-12-18T18:03:50.949Z,32.10
2022-12-18T18:06:24.107Z,29.77
2022-12-18T18:08:53.616Z,31.23
2022-12-18T18:11:42.457Z,35.45
2022-12-18T18:14:15.963Z,37.50
2022-12-18T18:16:47.579Z,33.75
2022-12-18T18:19:18.794Z,32.40
2022-12-18T18:21:50.704Z,33.88
2022-12-18T18:24:24.071Z,31.42
2022-12-18T18:26:52.726Z,31.75
2022-12-18T18:29:23.346Z,29.17
2022-12-18T18:31:52.745Z,28.73
2022-12-18T18:34:24.446Z,30.10
2022-12-18T18:36:54.392Z,32.00
2022-12-18T18:39:22.759Z,30.58
2022-12-18T18:41:51.824Z,28.88
2022-12-18T18:44:25.767Z,29.35
2022-12-18T18:46:56.705Z,27.73
2022-12-18T18:49:27.559Z,29.85
2022-12-18T18:51:59.086Z,29.58
2022-12-18T18:54:27.508Z,29.65
2022-12-18T18:59:44.568Z,28.30
2022-12-18T19:02:14.322Z,30.05
2022-12-18T19:04:45.661Z,30.58
2022-12-18T19:07:29.728Z,33.08
2022-12-18T19:10:04.740Z,34.63
2022-12-18T19:12:52.909Z,33.35
2022-12-18T19:15:23.385Z,27.48
2022-12-18T19:17:52.315Z,36.22
2022-12-18T19:20:21.308Z,31.77
2022-12-18T19:22:55.743Z,31.70
2022-12-18T19:25:38.599Z,30.25
2022-12-18T19:28:21.252Z,25.85
2022-12-18T19:30:58.669Z,28.50
2022-12-18T19:33:45.046Z,24.50
2022-12-18T19:36:19.509Z,22.73
2022-12-18T19:38:50.982Z,25.95
2022-12-18T19:41:20.889Z,24.50
2022-12-18T19:43:50.058Z,27.50
2022-12-18T19:46:22.264Z,26.45
2022-12-18T19:48:51.550Z,29.17
2022-12-18T19:51:23.884Z,26.27
2022-12-18T19:53:58.876Z,28.00
2022-12-18T19:56:31.901Z,27.35
2022-12-18T19:59:00.260Z,27.98
2022-12-18T20:01:30.061Z,27.33
2022-12-18T20:03:58.590Z,29.15
2022-12-18T20:06:30.563Z,30.67
2022-12-18T20:09:03.035Z,28.80
2022-12-18T20:11:40.126Z,33.13
2022-12-18T20:14:11.298Z,32.80
2022-12-18T20:16:40.405Z,29.95
2022-12-18T20:19:10.013Z,32.20
2022-12-18T20:21:39.421Z,31.00
2022-12-18T20:24:10.009Z,33.15
2022-12-18T20:26:38.320Z,35.42
2022-12-18T20:29:06.887Z,29.13
2022-12-18T20:31:35.752Z,32.78
2022-12-18T20:34:06.094Z,32.08
2022-12-18T20:36:36.407Z,30.88
2022-12-18T20:39:08.931Z,30.58
2022-12-18T20:41:39.290Z,30.35
2022-12-18T20:44:21.760Z,30.48
2022-12-18T20:46:54.785Z,31.02
2022-12-18T20:49:24.670Z,32.28
2022-12-18T20:51:54.821Z,31.63
2022-12-18T20:54:27.143Z,33.95
2022-12-18T20:56:55.793Z,35.15
2022-12-18T20:59:25.524Z,34.28
2022-12-18T21:01:54.658Z,34.75
2022-12-18T21:04:23.658Z,36.03
2022-12-18T21:07:01.906Z,36.88
2022-12-18T21:09:37.364Z,37.33
2022-12-18T21:12:29.373Z,37.38
2022-12-18T21:15:01.626Z,36.63
2022-12-18T21:17:30.150Z,38.85
2022-12-18T21:20:02.979Z,39.88
2022-12-18T21:22:34.614Z,40.88
2022-12-18T21:25:04.527Z,39.83
2022-12-18T21:27:33.089Z,40.05
2022-12-18T21:30:01.408Z,39.75
2022-12-18T21:32:33.566Z,39.78
2022-12-18T21:35:05.024Z,43.20
2022-12-18T21:37:33.354Z,41.22
2022-12-18T21:40:03.670Z,41.92
2022-12-18T21:42:50.106Z,40.72
2022-12-18T21:45:18.736Z,39.08
2022-12-18T21:47:47.080Z,40.88
2022-12-18T21:50:15.734Z,38.90
2022-12-18T21:52:44.213Z,39.17
2022-12-18T21:55:13.924Z,37.88
2022-12-18T21:57:42.199Z,40.05
2022-12-18T22:00:18.990Z,43.42
2022-12-18T22:03:08.705Z,41.10
2022-12-18T22:05:37.650Z,40.50
2022-12-18T22:08:07.535Z,37.10
2022-12-18T22:10:38.650Z,43.17
2022-12-18T22:13:07.965Z,39.55
2022-12-18T22:15:36.527Z,43.30
2022-12-18T22:18:05.151Z,43.88
2022-12-18T22:20:33.402Z,42.80
2022-12-18T22:23:05.621Z,43.63
2022-12-18T22:25:35.840Z,39.40
2022-12-18T22:28:27.104Z,41.67
2022-12-18T22:30:59.573Z,44.15
2022-12-18T22:33:29.627Z,43.00
2022-12-18T22:35:57.880Z,40.30
2022-12-18T22:38:27.175Z,40.60
2022-12-18T22:40:56.408Z,38.58
2022-12-18T22:43:26.579Z,40.25
2022-12-18T22:45:55.307Z,39.58
2022-12-18T22:48:24.281Z,40.30
2022-12-18T22:50:53.443Z,36.78
2022-12-18T22:53:27.936Z,37.67
2022-12-18T22:56:02.596Z,39.80
2022-12-18T22:58:32.275Z,38.45
2022-12-18T23:01:01.074Z,41.70
2022-12-18T23:03:30.351Z,41.78
2022-12-18T23:06:05.399Z,44.10
2022-12-18T23:08:34.613Z,44.95
2022-12-18T23:11:03.577Z,39.38
2022-12-18T23:13:34.829Z,35.50
2022-12-18T23:16:07.912Z,39.05
2022-12-18T23:18:37.291Z,36.95
2022-12-18T23:21:07.158Z,41.13
2022-12-18T23:23:36.648Z,37.75
2022-12-18T23:26:07.855Z,39.70
2022-12-18T23:28:38.942Z,39.95
2022-12-18T23:31:09.900Z,40.97
2022-12-18T23:33:38.282Z,41.35
2022-12-18T23:36:08.124Z,41.72
2022-12-18T23:38:37.205Z,35.05
2022-12-18T23:41:10.269Z,36.00
2022-12-18T23:43:40.887Z,38.65
2022-12-18T23:46:19.519Z,36.40
2022-12-18T23:48:48.490Z,34.28
2022-12-18T23:51:18.630Z,35.70
2022-12-18T23:53:46.991Z,36.00
2022-12-18T23:56:15.573Z,33.80
2022-12-18T23:58:48.902Z,31.85
